temperature
    1      1.80  2019 02 20 01 18   48.46990  236.68100     5
    3      1.90  2019 02 20 01 18   48.47760  236.58299     1
    4      2.00  2019 02 20 01 18   48.44080  236.66100     1
    5      1.80  2019 02 20 01 18   48.46600  236.66299     1
    6      2.10  2019 02 20 01 18   48.46160  236.59200     1
    7      1.90  2019 02 20 01 18   48.46550  236.67900     1
    9      2.00  2019 02 20 01 18   48.46510  236.70000     1
   10      3.00  2019 02 20 01 18   48.42530  236.59500     1
   11      2.20  2019 02 20 01 18   48.41690  236.62000     1
   12      2.10  2019 02 20 01 18   48.43460  236.61200     1
   13      1.70  2019 02 20 01 18   48.45330  236.57401     1
   14      1.80  2019 02 20 01 18   48.43590  236.68900     1
   15      2.90  2019 02 20 01 18   48.41530  236.65199     1
   17      0.80  2019 02 20 01 18   48.46630  236.55800     1
   18      2.30  2019 02 20 01 18   48.48650  236.67599     1
   19      2.60  2019 02 20 01 18   48.41820  236.68600     1
   20      0.80  2019 02 20 01 18   48.47880  236.63499     1
   21      2.00  2019 02 20 01 18   48.47440  236.61900     1
   22      1.80  2019 02 20 01 18   48.45340  236.64101     1
   24      2.50  2019 02 20 01 18   48.48490  236.68600     1
   25      1.70  2019 02 20 01 18   48.44510  236.67200     1
   27      1.10  2019 02 20 01 18   48.47690  236.60899     1
   29      2.60  2019 02 20 01 18   48.43290  236.64900     1
   30      0.70  2019 02 20 01 18   48.48060  236.60001     1
   31      1.60  2019 02 20 01 18   48.42050  236.51401     3
   32      1.30  2019 02 20 01 18   48.43560  236.51401     3
   33      1.20  2019 02 20 01 18   48.46830  236.64101     1
   34      1.20  2019 02 20 01 18   48.45290  236.52299     3
   36      1.80  2019 02 20 01 18   48.36400  236.44600     3
   39      2.20  2019 02 20 01 18   48.46550  236.49400     3
   40      1.20  2019 02 20 01 18   48.45150  236.49500     3
   42      1.80  2019 02 20 01 18   48.56210  236.53400     2
   43      3.80  2019 02 20 01 18   48.45220  236.73300     5
   55      1.60  2019 02 20 01 18   48.44880  236.51401     3
   56      0.40  2019 02 20 01 18   48.45720  236.45100     3
   57      1.40  2019 02 20 01 18   48.42180  236.50500     3
   58      2.30  2019 02 20 01 18   48.41910  236.51199     3
   59      1.90  2019 02 20 01 18   48.38740  236.28300     3
   60      2.80  2019 02 20 01 18   48.43820  236.60400     1
   61      1.10  2019 02 20 01 18   48.52730  236.63000     4
   62      1.70  2019 02 20 01 18   48.68040  236.54300     4
   66      0.50  2019 02 20 01 18   48.52340  236.56700     4
   68      1.20  2019 02 20 01 18   48.56970  236.54700     4
   70      1.20  2019 02 20 01 18   48.67010  236.57899     4
   71      0.40  2019 02 20 01 18   48.53760  236.49899    11
   72      4.60  2019 02 20 01 18   48.29838  236.46838     5
   73      1.70  2019 02 20 01 18   48.45370  236.57899     1
   74      1.70  2019 02 20 01 18   48.44560  236.63901     1
   75      2.30  2019 02 20 01 18   48.42350  236.65300     1
   76      1.30  2019 02 20 01 18   48.47920  236.66901     1
   77      2.10  2019 02 20 01 18   48.46690  236.60800     1
   79      2.40  2019 02 20 01 18   48.47130  236.69299     1
   80      1.30  2019 02 20 01 18   48.48210  236.67000     1
   81      2.20  2019 02 20 01 18   48.46970  236.65500     1
   85      0.50  2019 02 20 01 18   48.82900  235.94800    10
   86      1.70  2019 02 20 01 18   49.22620  235.97301    20
   90      0.80  2019 02 20 01 18   48.45710  236.56300     1
   93      1.10  2019 02 20 01 18   48.65380  236.37601    14
   95      1.50  2019 02 20 01 18   49.34850  235.59900    21
   96      1.30  2019 02 20 01 18   49.44590  235.30099    21
   99      0.60  2019 02 20 01 18   48.51100  236.53600    11
  101      0.00  2019 02 20 01 18   48.51010  236.47600    11
  104      1.30  2019 02 20 01 18   48.42810  236.47099     3
  105      1.10  2019 02 20 01 18   48.55650  235.60100     3
  106      2.00  2019 02 20 01 18   48.38910  236.30400     3
  108      0.40  2019 02 20 01 18   49.24600  235.19600    23
  110      2.30  2019 02 20 01 18   49.27380  235.80901    21
  111      2.50  2019 02 20 01 18   49.31490  235.68800    21
  112      2.30  2019 02 20 01 18   48.79430  236.82700    40
  114      2.80  2019 02 20 01 18   48.88560  236.66600    45
  114      2.80  2019 02 20 01 18   48.88560  236.66600    40
  115      2.00  2019 02 20 01 18   48.43210  236.59801     5
  117      3.40  2019 02 20 01 18   48.85550  236.49699    40
  121      2.90  2019 02 20 01 18   48.85540  236.49300    40
  123      2.20  2019 02 20 01 18   49.15670  236.03101    23
  125      2.00  2019 02 20 01 18   48.43350  236.67599     5
  126      1.30  2019 02 20 01 18   48.78590  236.30499    10
  131      1.70  2019 02 20 01 18   48.42890  236.69299     5
  132      0.30  2019 02 20 01 18   48.61540  236.36900    14
  136      1.50  2019 02 20 01 18   49.22670  235.95399    20
  137      2.70  2019 02 20 01 18   49.24090  235.96700    20
  138      3.00  2019 02 20 01 18   49.15220  236.06200    20
  139      2.70  2019 02 20 01 18   49.23280  236.03200    20
  143      2.90  2019 02 20 01 18   48.46230  236.69099     5
  144      2.60  2019 02 20 01 18   48.43940  236.64999     5
  162      1.60  2019 02 20 01 18   48.45240  236.67101     5
  163      2.40  2019 02 20 01 18   48.46480  236.68600     5
  166      0.60  2019 02 20 01 18   49.22710  235.20799    60
  167      2.80  2019 02 20 01 18   49.15040  234.09500    60
  168      2.20  2019 02 20 01 18   48.93980  234.45500    60
  169      0.80  2019 02 20 01 18   48.43780  236.46700     5
  174      1.50  2019 02 20 01 18   48.62580  236.57700     4
  176      1.80  2019 02 20 01 18   48.41800  236.68201     5
  178     -3.70  2019 02 20 01 18   64.06090  225.57001    81
  180      0.80  2019 02 20 01 18   49.92680  233.34801    70
  181      1.10  2019 02 20 01 18   48.38970  236.47800     5
  182      3.10  2019 02 20 01 18   49.20990  236.04500    23
  188      1.70  2019 02 20 01 18   48.66570  236.58200     4
  189     -0.60  2019 02 20 01 18   49.70950  235.08600    30
  190     -0.60  2019 02 20 01 18   49.68220  235.00101    30
  191      0.20  2019 02 20 01 18   49.62120  234.96700    30
  192      1.20  2019 02 20 01 18   49.53550  235.18401    30
  194      0.00  2019 02 20 01 18   49.85610  234.88100    30
  199      3.10  2019 02 20 01 18   48.39510  236.69501     5
  200      1.80  2019 02 20 01 18   48.48800  236.67300     5
  204      0.40  2019 02 20 01 18   49.94130  234.80499    35
  206      0.70  2019 02 20 01 18   49.97270  234.76100    35
  207      0.10  2019 02 20 01 18   49.98010  234.75500    35
  208     -0.10  2019 02 20 01 18   50.02360  234.72600    35
  210      0.70  2019 02 20 01 18   50.02080  234.75400    35
  211     -0.40  2019 02 20 01 18   50.05990  235.01700    35
  212      0.90  2019 02 20 01 18   50.37740  234.04201    35
  217      3.10  2019 02 20 01 18   48.45190  236.70399     5
  218      1.90  2019 02 20 01 18   49.32200  235.65700    21
  226      0.40  2019 02 20 01 18   48.80798  235.32809    65
  227      1.40  2019 02 20 01 18   48.52524  236.61111     5
  228      2.80  2019 02 20 01 18   48.43951  236.62003     5
  234      1.60  2019 02 20 01 18   48.88760  236.62149    45
  235      3.00  2019 02 20 01 18   48.92833  236.53203    45
  236      3.80  2019 02 20 01 18   48.90087  236.65764    45
  237      3.50  2019 02 20 01 18   48.96380  236.44890    45
  238      1.80  2019 02 20 01 18   48.88512  236.64799    45
humidity
    1     89.00  2019 02 20 01 18   48.46990  236.68100     5
    3     91.00  2019 02 20 01 18   48.47760  236.58299     1
    4     86.00  2019 02 20 01 18   48.44080  236.66100     1
    5     88.00  2019 02 20 01 18   48.46600  236.66299     1
    6     93.00  2019 02 20 01 18   48.46160  236.59200     1
    7     94.00  2019 02 20 01 18   48.46550  236.67900     1
    9     89.00  2019 02 20 01 18   48.46510  236.70000     1
   10     91.00  2019 02 20 01 18   48.42530  236.59500     1
   11     87.00  2019 02 20 01 18   48.41690  236.62000     1
   12     95.00  2019 02 20 01 18   48.43460  236.61200     1
   13     92.00  2019 02 20 01 18   48.45330  236.57401     1
   14     89.00  2019 02 20 01 18   48.43590  236.68900     1
   15     92.00  2019 02 20 01 18   48.41530  236.65199     1
   17     92.00  2019 02 20 01 18   48.46630  236.55800     1
   18     87.00  2019 02 20 01 18   48.48650  236.67599     1
   19     92.00  2019 02 20 01 18   48.41820  236.68600     1
   20     89.00  2019 02 20 01 18   48.47880  236.63499     1
   21     93.00  2019 02 20 01 18   48.47440  236.61900     1
   22     92.00  2019 02 20 01 18   48.45340  236.64101     1
   25     92.00  2019 02 20 01 18   48.44510  236.67200     1
   27     95.00  2019 02 20 01 18   48.47690  236.60899     1
   29     92.00  2019 02 20 01 18   48.43290  236.64900     1
   30     93.00  2019 02 20 01 18   48.48060  236.60001     1
   31     90.00  2019 02 20 01 18   48.42050  236.51401     3
   32     83.00  2019 02 20 01 18   48.43560  236.51401     3
   33     92.00  2019 02 20 01 18   48.46830  236.64101     1
   34     92.00  2019 02 20 01 18   48.45290  236.52299     3
   36     95.00  2019 02 20 01 18   48.36400  236.44600     3
   39     91.00  2019 02 20 01 18   48.46550  236.49400     3
   40     89.00  2019 02 20 01 18   48.45150  236.49500     3
   43     89.00  2019 02 20 01 18   48.45220  236.73300     5
   56     95.00  2019 02 20 01 18   48.45720  236.45100     3
   57     93.00  2019 02 20 01 18   48.42180  236.50500     3
   58     90.00  2019 02 20 01 18   48.41910  236.51199     3
   59     91.00  2019 02 20 01 18   48.38740  236.28300     3
   62     93.00  2019 02 20 01 18   48.68040  236.54300     4
   66     93.00  2019 02 20 01 18   48.52340  236.56700     4
   68     93.00  2019 02 20 01 18   48.56970  236.54700     4
   73     96.00  2019 02 20 01 18   48.45370  236.57899     1
   74     90.00  2019 02 20 01 18   48.44560  236.63901     1
   75     92.00  2019 02 20 01 18   48.42350  236.65300     1
   77     89.00  2019 02 20 01 18   48.46690  236.60800     1
   79     93.00  2019 02 20 01 18   48.47130  236.69299     1
   80     97.00  2019 02 20 01 18   48.48210  236.67000     1
   81     90.00  2019 02 20 01 18   48.46970  236.65500     1
   85     96.00  2019 02 20 01 18   48.82900  235.94800    10
   86     95.00  2019 02 20 01 18   49.22620  235.97301    20
   90     90.00  2019 02 20 01 18   48.45710  236.56300     1
   93     92.00  2019 02 20 01 18   48.65380  236.37601    14
   95     97.00  2019 02 20 01 18   49.34850  235.59900    21
   96     95.00  2019 02 20 01 18   49.44590  235.30099    21
   99     97.00  2019 02 20 01 18   48.51100  236.53600    11
  101     94.00  2019 02 20 01 18   48.51010  236.47600    11
  104     95.00  2019 02 20 01 18   48.42810  236.47099     3
  105     98.00  2019 02 20 01 18   48.55650  235.60100     3
  108     96.00  2019 02 20 01 18   49.24600  235.19600    23
  111     90.00  2019 02 20 01 18   49.31490  235.68800    21
  112     98.00  2019 02 20 01 18   48.79430  236.82700    40
  114     91.00  2019 02 20 01 18   48.88560  236.66600    40
  114     91.00  2019 02 20 01 18   48.88560  236.66600    45
  117     87.00  2019 02 20 01 18   48.85550  236.49699    40
  121     91.00  2019 02 20 01 18   48.85540  236.49300    40
  123     84.00  2019 02 20 01 18   49.15670  236.03101    23
  125     90.00  2019 02 20 01 18   48.43350  236.67599     5
  126     75.00  2019 02 20 01 18   48.78590  236.30499    10
  131     94.00  2019 02 20 01 18   48.42890  236.69299     5
  132     90.00  2019 02 20 01 18   48.61540  236.36900    14
  136     89.00  2019 02 20 01 18   49.22670  235.95399    20
  138     88.00  2019 02 20 01 18   49.15220  236.06200    20
  139     90.00  2019 02 20 01 18   49.23280  236.03200    20
  143     85.00  2019 02 20 01 18   48.46230  236.69099     5
  144     93.00  2019 02 20 01 18   48.43940  236.64999     5
  162     92.00  2019 02 20 01 18   48.45240  236.67101     5
  163     93.00  2019 02 20 01 18   48.46480  236.68600     5
  166     95.00  2019 02 20 01 18   49.22710  235.20799    60
  167     95.00  2019 02 20 01 18   49.15040  234.09500    60
  169     94.00  2019 02 20 01 18   48.43780  236.46700     5
  174     92.00  2019 02 20 01 18   48.62580  236.57700     4
  176     90.00  2019 02 20 01 18   48.41800  236.68201     5
  178     87.00  2019 02 20 01 18   64.06090  225.57001    81
  181     95.00  2019 02 20 01 18   48.38970  236.47800     5
  182     88.00  2019 02 20 01 18   49.20990  236.04500    23
  188     89.00  2019 02 20 01 18   48.66570  236.58200     4
  189     94.00  2019 02 20 01 18   49.70950  235.08600    30
  190     96.00  2019 02 20 01 18   49.68220  235.00101    30
  191     96.00  2019 02 20 01 18   49.62120  234.96700    30
  192     96.00  2019 02 20 01 18   49.53550  235.18401    30
  194     94.00  2019 02 20 01 18   49.85610  234.88100    30
  199     88.00  2019 02 20 01 18   48.39510  236.69501     5
  200     91.00  2019 02 20 01 18   48.48800  236.67300     5
  204     95.00  2019 02 20 01 18   49.94130  234.80499    35
  206     95.00  2019 02 20 01 18   49.97270  234.76100    35
  207     93.00  2019 02 20 01 18   49.98010  234.75500    35
  208     96.00  2019 02 20 01 18   50.02360  234.72600    35
  210     95.00  2019 02 20 01 18   50.02080  234.75400    35
  211     97.00  2019 02 20 01 18   50.05990  235.01700    35
  212     99.00  2019 02 20 01 18   50.37740  234.04201    35
  217     91.00  2019 02 20 01 18   48.45190  236.70399     5
  218     82.00  2019 02 20 01 18   49.32200  235.65700    21
  226     98.00  2019 02 20 01 18   48.80798  235.32809    65
  227     92.00  2019 02 20 01 18   48.52524  236.61111     5
  228     91.00  2019 02 20 01 18   48.43951  236.62003     5
  234     95.00  2019 02 20 01 18   48.88760  236.62149    45
  235     82.00  2019 02 20 01 18   48.92833  236.53203    45
  236     87.00  2019 02 20 01 18   48.90087  236.65764    45
  237     78.00  2019 02 20 01 18   48.96380  236.44890    45
  238     94.00  2019 02 20 01 18   48.88512  236.64799    45
wind
    1      0.00  2019 02 20 01 18   48.46990  236.68100     5
    3      0.00  2019 02 20 01 18   48.47760  236.58299     1
    4      0.00  2019 02 20 01 18   48.44080  236.66100     1
    5      0.00  2019 02 20 01 18   48.46600  236.66299     1
    6      0.00  2019 02 20 01 18   48.46160  236.59200     1
    7      0.00  2019 02 20 01 18   48.46550  236.67900     1
    9      0.00  2019 02 20 01 18   48.46510  236.70000     1
   10      0.80  2019 02 20 01 18   48.42530  236.59500     1
   11      0.00  2019 02 20 01 18   48.41690  236.62000     1
   12      0.00  2019 02 20 01 18   48.43460  236.61200     1
   13      0.00  2019 02 20 01 18   48.45330  236.57401     1
   14      0.00  2019 02 20 01 18   48.43590  236.68900     1
   15      0.60  2019 02 20 01 18   48.41530  236.65199     1
   17      0.00  2019 02 20 01 18   48.46630  236.55800     1
   18      0.40  2019 02 20 01 18   48.48650  236.67599     1
   19      0.00  2019 02 20 01 18   48.41820  236.68600     1
   20      0.00  2019 02 20 01 18   48.47880  236.63499     1
   21      0.50  2019 02 20 01 18   48.47440  236.61900     1
   22      0.00  2019 02 20 01 18   48.45340  236.64101     1
   24      1.80  2019 02 20 01 18   48.48490  236.68600     1
   25      0.00  2019 02 20 01 18   48.44510  236.67200     1
   27      0.00  2019 02 20 01 18   48.47690  236.60899     1
   29      0.00  2019 02 20 01 18   48.43290  236.64900     1
   30      0.00  2019 02 20 01 18   48.48060  236.60001     1
   31      0.00  2019 02 20 01 18   48.42050  236.51401     3
   32      0.00  2019 02 20 01 18   48.43560  236.51401     3
   33      0.00  2019 02 20 01 18   48.46830  236.64101     1
   34      0.00  2019 02 20 01 18   48.45290  236.52299     3
   36      0.00  2019 02 20 01 18   48.36400  236.44600     3
   39      0.00  2019 02 20 01 18   48.46550  236.49400     3
   40      0.00  2019 02 20 01 18   48.45150  236.49500     3
   42      0.00  2019 02 20 01 18   48.56210  236.53400     2
   43      2.60  2019 02 20 01 18   48.45220  236.73300     5
   55      0.00  2019 02 20 01 18   48.44880  236.51401     3
   56      0.00  2019 02 20 01 18   48.45720  236.45100     3
   57      0.00  2019 02 20 01 18   48.42180  236.50500     3
   58      0.00  2019 02 20 01 18   48.41910  236.51199     3
   59      1.00  2019 02 20 01 18   48.38740  236.28300     3
   60      0.00  2019 02 20 01 18   48.43820  236.60400     1
   61      0.00  2019 02 20 01 18   48.52730  236.63000     4
   62      0.00  2019 02 20 01 18   48.68040  236.54300     4
   66      0.00  2019 02 20 01 18   48.52340  236.56700     4
   68      0.00  2019 02 20 01 18   48.56970  236.54700     4
   70      0.90  2019 02 20 01 18   48.67010  236.57899     4
   71      0.00  2019 02 20 01 18   48.53760  236.49899    11
   72      3.40  2019 02 20 01 18   48.29838  236.46838     5
   73      0.00  2019 02 20 01 18   48.45370  236.57899     1
   74      0.00  2019 02 20 01 18   48.44560  236.63901     1
   75      0.40  2019 02 20 01 18   48.42350  236.65300     1
   76      0.00  2019 02 20 01 18   48.47920  236.66901     1
   77      0.00  2019 02 20 01 18   48.46690  236.60800     1
   79      0.20  2019 02 20 01 18   48.47130  236.69299     1
   80      0.30  2019 02 20 01 18   48.48210  236.67000     1
   81      0.00  2019 02 20 01 18   48.46970  236.65500     1
   85      0.00  2019 02 20 01 18   48.82900  235.94800    10
   86      1.90  2019 02 20 01 18   49.22620  235.97301    20
   90      0.00  2019 02 20 01 18   48.45710  236.56300     1
   93      0.00  2019 02 20 01 18   48.65380  236.37601    14
   95      0.90  2019 02 20 01 18   49.34850  235.59900    21
   96      0.20  2019 02 20 01 18   49.44590  235.30099    21
   98      0.00  2019 02 20 01 18   48.41610  236.67000     1
   99      0.00  2019 02 20 01 18   48.51100  236.53600    11
  101      0.00  2019 02 20 01 18   48.51010  236.47600    11
  104      0.00  2019 02 20 01 18   48.42810  236.47099     3
  105      0.00  2019 02 20 01 18   48.55650  235.60100     3
  106      0.00  2019 02 20 01 18   48.38910  236.30400     3
  108      0.00  2019 02 20 01 18   49.24600  235.19600    23
  110      0.60  2019 02 20 01 18   49.27380  235.80901    21
  111      0.90  2019 02 20 01 18   49.31490  235.68800    21
  112      0.00  2019 02 20 01 18   48.79430  236.82700    40
  114      0.10  2019 02 20 01 18   48.88560  236.66600    40
  114      0.10  2019 02 20 01 18   48.88560  236.66600    45
  115      0.10  2019 02 20 01 18   48.43210  236.59801     5
  117      1.80  2019 02 20 01 18   48.85550  236.49699    40
  121      1.60  2019 02 20 01 18   48.85540  236.49300    40
  123      0.50  2019 02 20 01 18   49.15670  236.03101    23
  125      0.00  2019 02 20 01 18   48.43350  236.67599     5
  126      0.00  2019 02 20 01 18   48.78590  236.30499    10
  131      0.00  2019 02 20 01 18   48.42890  236.69299     5
  132      0.00  2019 02 20 01 18   48.61540  236.36900    14
  136      1.40  2019 02 20 01 18   49.22670  235.95399    20
  138      2.40  2019 02 20 01 18   49.15220  236.06200    20
  139      1.80  2019 02 20 01 18   49.23280  236.03200    20
  143      2.30  2019 02 20 01 18   48.46230  236.69099     5
  144      0.00  2019 02 20 01 18   48.43940  236.64999     5
  162      0.10  2019 02 20 01 18   48.45240  236.67101     5
  163      1.80  2019 02 20 01 18   48.46480  236.68600     5
  166      0.90  2019 02 20 01 18   49.22710  235.20799    60
  167      0.10  2019 02 20 01 18   49.15040  234.09500    60
  168      0.20  2019 02 20 01 18   48.93980  234.45500    60
  169      0.00  2019 02 20 01 18   48.43780  236.46700     5
  174      0.00  2019 02 20 01 18   48.62580  236.57700     4
  176      0.00  2019 02 20 01 18   48.41800  236.68201     5
  178      0.00  2019 02 20 01 18   64.06090  225.57001    81
  180      0.30  2019 02 20 01 18   49.92680  233.34801    70
  181      0.30  2019 02 20 01 18   48.38970  236.47800     5
  182      2.60  2019 02 20 01 18   49.20990  236.04500    23
  188      0.00  2019 02 20 01 18   48.66570  236.58200     4
  189      0.00  2019 02 20 01 18   49.70950  235.08600    30
  190      0.00  2019 02 20 01 18   49.68220  235.00101    30
  191      0.00  2019 02 20 01 18   49.62120  234.96700    30
  192      0.00  2019 02 20 01 18   49.53550  235.18401    30
  194      0.00  2019 02 20 01 18   49.85610  234.88100    30
  195      0.00  2019 02 20 01 18   49.76670  234.97301    30
  199      1.50  2019 02 20 01 18   48.39510  236.69501     5
  200      0.00  2019 02 20 01 18   48.48800  236.67300     5
  204      1.80  2019 02 20 01 18   49.94130  234.80499    35
  206      1.20  2019 02 20 01 18   49.97270  234.76100    35
  207      0.20  2019 02 20 01 18   49.98010  234.75500    35
  208      0.00  2019 02 20 01 18   50.02360  234.72600    35
  210      1.90  2019 02 20 01 18   50.02080  234.75400    35
  211      0.00  2019 02 20 01 18   50.05990  235.01700    35
  212      0.00  2019 02 20 01 18   50.37740  234.04201    35
  217      1.90  2019 02 20 01 18   48.45190  236.70399     5
  218      0.00  2019 02 20 01 18   49.32200  235.65700    21
  226      0.00  2019 02 20 01 18   48.80798  235.32809    65
  227      0.00  2019 02 20 01 18   48.52524  236.61111     5
  228      0.00  2019 02 20 01 18   48.43951  236.62003     5
  234      0.20  2019 02 20 01 18   48.88760  236.62149    45
  235      1.20  2019 02 20 01 18   48.92833  236.53203    45
  236      0.40  2019 02 20 01 18   48.90087  236.65764    45
  237      0.60  2019 02 20 01 18   48.96380  236.44890    45
  238      0.60  2019 02 20 01 18   48.88512  236.64799    45
winddir
    1    322.00  2019 02 20 01 18   48.46990  236.68100     5
    3     47.00  2019 02 20 01 18   48.47760  236.58299     1
    4    345.00  2019 02 20 01 18   48.44080  236.66100     1
    5    330.00  2019 02 20 01 18   48.46600  236.66299     1
    6    335.00  2019 02 20 01 18   48.46160  236.59200     1
    7    333.00  2019 02 20 01 18   48.46550  236.67900     1
    9    325.00  2019 02 20 01 18   48.46510  236.70000     1
   10    336.00  2019 02 20 01 18   48.42530  236.59500     1
   11    342.00  2019 02 20 01 18   48.41690  236.62000     1
   12    333.00  2019 02 20 01 18   48.43460  236.61200     1
   13    333.00  2019 02 20 01 18   48.45330  236.57401     1
   14    317.00  2019 02 20 01 18   48.43590  236.68900     1
   15    355.00  2019 02 20 01 18   48.41530  236.65199     1
   17     31.00  2019 02 20 01 18   48.46630  236.55800     1
   18    356.00  2019 02 20 01 18   48.48650  236.67599     1
   19    331.00  2019 02 20 01 18   48.41820  236.68600     1
   20    278.00  2019 02 20 01 18   48.47880  236.63499     1
   21     19.00  2019 02 20 01 18   48.47440  236.61900     1
   22    360.00  2019 02 20 01 18   48.45340  236.64101     1
   24    352.00  2019 02 20 01 18   48.48490  236.68600     1
   25    251.00  2019 02 20 01 18   48.44510  236.67200     1
   27    355.00  2019 02 20 01 18   48.47690  236.60899     1
   29    342.00  2019 02 20 01 18   48.43290  236.64900     1
   30     12.00  2019 02 20 01 18   48.48060  236.60001     1
   31    329.00  2019 02 20 01 18   48.42050  236.51401     3
   32    348.00  2019 02 20 01 18   48.43560  236.51401     3
   33    330.00  2019 02 20 01 18   48.46830  236.64101     1
   34    360.00  2019 02 20 01 18   48.45290  236.52299     3
   36    303.00  2019 02 20 01 18   48.36400  236.44600     3
   39    287.00  2019 02 20 01 18   48.46550  236.49400     3
   40      9.00  2019 02 20 01 18   48.45150  236.49500     3
   42    317.00  2019 02 20 01 18   48.56210  236.53400     2
   43    304.00  2019 02 20 01 18   48.45220  236.73300     5
   55    336.00  2019 02 20 01 18   48.44880  236.51401     3
   56     22.00  2019 02 20 01 18   48.45720  236.45100     3
   57    348.00  2019 02 20 01 18   48.42180  236.50500     3
   58    355.00  2019 02 20 01 18   48.41910  236.51199     3
   59    343.00  2019 02 20 01 18   48.38740  236.28300     3
   60    246.00  2019 02 20 01 18   48.43820  236.60400     1
   61    275.00  2019 02 20 01 18   48.52730  236.63000     4
   62    284.00  2019 02 20 01 18   48.68040  236.54300     4
   66     19.00  2019 02 20 01 18   48.52340  236.56700     4
   68    360.00  2019 02 20 01 18   48.56970  236.54700     4
   70    246.00  2019 02 20 01 18   48.67010  236.57899     4
   71    119.00  2019 02 20 01 18   48.53760  236.49899    11
   72     35.00  2019 02 20 01 18   48.29838  236.46838     5
   73    323.00  2019 02 20 01 18   48.45370  236.57899     1
   74    315.00  2019 02 20 01 18   48.44560  236.63901     1
   75    323.00  2019 02 20 01 18   48.42350  236.65300     1
   76    360.00  2019 02 20 01 18   48.47920  236.66901     1
   77     10.00  2019 02 20 01 18   48.46690  236.60800     1
   79    175.00  2019 02 20 01 18   48.47130  236.69299     1
   80    325.00  2019 02 20 01 18   48.48210  236.67000     1
   81    360.00  2019 02 20 01 18   48.46970  236.65500     1
   85    175.00  2019 02 20 01 18   48.82900  235.94800    10
   86    310.00  2019 02 20 01 18   49.22620  235.97301    20
   90    263.00  2019 02 20 01 18   48.45710  236.56300     1
   93    244.00  2019 02 20 01 18   48.65380  236.37601    14
   95    210.00  2019 02 20 01 18   49.34850  235.59900    21
   96    234.00  2019 02 20 01 18   49.44590  235.30099    21
   98     35.00  2019 02 20 01 18   48.41610  236.67000     1
   99    174.00  2019 02 20 01 18   48.51100  236.53600    11
  101    289.00  2019 02 20 01 18   48.51010  236.47600    11
  104    360.00  2019 02 20 01 18   48.42810  236.47099     3
  105     66.00  2019 02 20 01 18   48.55650  235.60100     3
  106    288.00  2019 02 20 01 18   48.38910  236.30400     3
  110    293.00  2019 02 20 01 18   49.27380  235.80901    21
  111    317.00  2019 02 20 01 18   49.31490  235.68800    21
  112      5.00  2019 02 20 01 18   48.79430  236.82700    40
  114    296.00  2019 02 20 01 18   48.88560  236.66600    40
  114    296.00  2019 02 20 01 18   48.88560  236.66600    45
  115    360.00  2019 02 20 01 18   48.43210  236.59801     5
  117    296.00  2019 02 20 01 18   48.85550  236.49699    40
  121    284.00  2019 02 20 01 18   48.85540  236.49300    40
  123    355.00  2019 02 20 01 18   49.15670  236.03101    23
  125    336.00  2019 02 20 01 18   48.43350  236.67599     5
  126    321.00  2019 02 20 01 18   48.78590  236.30499    10
  131    296.00  2019 02 20 01 18   48.42890  236.69299     5
  132    185.00  2019 02 20 01 18   48.61540  236.36900    14
  136    263.00  2019 02 20 01 18   49.22670  235.95399    20
  137    272.00  2019 02 20 01 18   49.24090  235.96700    20
  138    273.00  2019 02 20 01 18   49.15220  236.06200    20
  139    239.00  2019 02 20 01 18   49.23280  236.03200    20
  143    316.00  2019 02 20 01 18   48.46230  236.69099     5
  144    337.00  2019 02 20 01 18   48.43940  236.64999     5
  162    355.00  2019 02 20 01 18   48.45240  236.67101     5
  163    315.00  2019 02 20 01 18   48.46480  236.68600     5
  166    360.00  2019 02 20 01 18   49.22710  235.20799    60
  167    343.00  2019 02 20 01 18   49.15040  234.09500    60
  168    259.00  2019 02 20 01 18   48.93980  234.45500    60
  169    312.00  2019 02 20 01 18   48.43780  236.46700     5
  174      5.00  2019 02 20 01 18   48.62580  236.57700     4
  176    313.00  2019 02 20 01 18   48.41800  236.68201     5
  178    320.00  2019 02 20 01 18   64.06090  225.57001    81
  180    311.00  2019 02 20 01 18   49.92680  233.34801    70
  181    259.00  2019 02 20 01 18   48.38970  236.47800     5
  182    298.00  2019 02 20 01 18   49.20990  236.04500    23
  188    274.00  2019 02 20 01 18   48.66570  236.58200     4
  189    241.00  2019 02 20 01 18   49.70950  235.08600    30
  190    238.00  2019 02 20 01 18   49.68220  235.00101    30
  191    265.00  2019 02 20 01 18   49.62120  234.96700    30
  192    324.00  2019 02 20 01 18   49.53550  235.18401    30
  194    238.00  2019 02 20 01 18   49.85610  234.88100    30
  195    147.00  2019 02 20 01 18   49.76670  234.97301    30
  199    317.00  2019 02 20 01 18   48.39510  236.69501     5
  200    328.00  2019 02 20 01 18   48.48800  236.67300     5
  204    280.00  2019 02 20 01 18   49.94130  234.80499    35
  206    281.00  2019 02 20 01 18   49.97270  234.76100    35
  207    238.00  2019 02 20 01 18   49.98010  234.75500    35
  208    274.00  2019 02 20 01 18   50.02360  234.72600    35
  210    233.00  2019 02 20 01 18   50.02080  234.75400    35
  211    259.00  2019 02 20 01 18   50.05990  235.01700    35
  212    205.00  2019 02 20 01 18   50.37740  234.04201    35
  217    337.00  2019 02 20 01 18   48.45190  236.70399     5
  218    261.00  2019 02 20 01 18   49.32200  235.65700    21
  226    102.00  2019 02 20 01 18   48.80798  235.32809    65
  227    300.00  2019 02 20 01 18   48.52524  236.61111     5
  228    342.00  2019 02 20 01 18   48.43951  236.62003     5
  234    352.00  2019 02 20 01 18   48.88760  236.62149    45
  235      3.00  2019 02 20 01 18   48.92833  236.53203    45
  236    315.00  2019 02 20 01 18   48.90087  236.65764    45
  237    290.00  2019 02 20 01 18   48.96380  236.44890    45
  238    127.00  2019 02 20 01 18   48.88512  236.64799    45
solar
    1      0.00  2019 02 20 01 18   48.46990  236.68100     5
    3      0.00  2019 02 20 01 18   48.47760  236.58299     1
    4      0.00  2019 02 20 01 18   48.44080  236.66100     1
    5      0.00  2019 02 20 01 18   48.46600  236.66299     1
    6      0.00  2019 02 20 01 18   48.46160  236.59200     1
    7      0.00  2019 02 20 01 18   48.46550  236.67900     1
    9      0.00  2019 02 20 01 18   48.46510  236.70000     1
   10      0.00  2019 02 20 01 18   48.42530  236.59500     1
   11      0.00  2019 02 20 01 18   48.41690  236.62000     1
   12      0.00  2019 02 20 01 18   48.43460  236.61200     1
   13      0.00  2019 02 20 01 18   48.45330  236.57401     1
   14      0.00  2019 02 20 01 18   48.43590  236.68900     1
   15      0.00  2019 02 20 01 18   48.41530  236.65199     1
   17      0.00  2019 02 20 01 18   48.46630  236.55800     1
   18      0.00  2019 02 20 01 18   48.48650  236.67599     1
   19      0.00  2019 02 20 01 18   48.41820  236.68600     1
   20      0.00  2019 02 20 01 18   48.47880  236.63499     1
   21      0.00  2019 02 20 01 18   48.47440  236.61900     1
   22      0.00  2019 02 20 01 18   48.45340  236.64101     1
   24      0.00  2019 02 20 01 18   48.48490  236.68600     1
   25      0.00  2019 02 20 01 18   48.44510  236.67200     1
   27      0.00  2019 02 20 01 18   48.47690  236.60899     1
   29      0.00  2019 02 20 01 18   48.43290  236.64900     1
   30      0.00  2019 02 20 01 18   48.48060  236.60001     1
   31      0.00  2019 02 20 01 18   48.42050  236.51401     3
   32      0.00  2019 02 20 01 18   48.43560  236.51401     3
   33      0.00  2019 02 20 01 18   48.46830  236.64101     1
   34      0.00  2019 02 20 01 18   48.45290  236.52299     3
   36      0.00  2019 02 20 01 18   48.36400  236.44600     3
   39      0.00  2019 02 20 01 18   48.46550  236.49400     3
   40      0.00  2019 02 20 01 18   48.45150  236.49500     3
   42      0.00  2019 02 20 01 18   48.56210  236.53400     2
   55      0.00  2019 02 20 01 18   48.44880  236.51401     3
   56      0.00  2019 02 20 01 18   48.45720  236.45100     3
   57      0.00  2019 02 20 01 18   48.42180  236.50500     3
   58      0.00  2019 02 20 01 18   48.41910  236.51199     3
   59      0.00  2019 02 20 01 18   48.38740  236.28300     3
   60      0.00  2019 02 20 01 18   48.43820  236.60400     1
   61      0.00  2019 02 20 01 18   48.52730  236.63000     4
   62      0.00  2019 02 20 01 18   48.68040  236.54300     4
   66      0.00  2019 02 20 01 18   48.52340  236.56700     4
   68      0.00  2019 02 20 01 18   48.56970  236.54700     4
   70      0.00  2019 02 20 01 18   48.67010  236.57899     4
   71      0.00  2019 02 20 01 18   48.53760  236.49899    11
   72      0.00  2019 02 20 01 18   48.29838  236.46838     5
   73      0.00  2019 02 20 01 18   48.45370  236.57899     1
   74      0.00  2019 02 20 01 18   48.44560  236.63901     1
   75      0.00  2019 02 20 01 18   48.42350  236.65300     1
   76      0.00  2019 02 20 01 18   48.47920  236.66901     1
   77      0.00  2019 02 20 01 18   48.46690  236.60800     1
   79      0.00  2019 02 20 01 18   48.47130  236.69299     1
   80      0.00  2019 02 20 01 18   48.48210  236.67000     1
   81      0.00  2019 02 20 01 18   48.46970  236.65500     1
   85      0.00  2019 02 20 01 18   48.82900  235.94800    10
   86      0.00  2019 02 20 01 18   49.22620  235.97301    20
   90      0.00  2019 02 20 01 18   48.45710  236.56300     1
   93      0.00  2019 02 20 01 18   48.65380  236.37601    14
   95      0.00  2019 02 20 01 18   49.34850  235.59900    21
   96      0.00  2019 02 20 01 18   49.44590  235.30099    21
   98      0.00  2019 02 20 01 18   48.41610  236.67000     1
   99      0.00  2019 02 20 01 18   48.51100  236.53600    11
  101      0.00  2019 02 20 01 18   48.51010  236.47600    11
  104      0.00  2019 02 20 01 18   48.42810  236.47099     3
  105      0.00  2019 02 20 01 18   48.55650  235.60100     3
  106      0.00  2019 02 20 01 18   48.38910  236.30400     3
  107      0.00  2019 02 20 01 18   48.46610  236.50400     3
  108      0.00  2019 02 20 01 18   49.24600  235.19600    23
  110      0.00  2019 02 20 01 18   49.27380  235.80901    21
  111      0.00  2019 02 20 01 18   49.31490  235.68800    21
  112      0.00  2019 02 20 01 18   48.79430  236.82700    40
  114      0.00  2019 02 20 01 18   48.88560  236.66600    40
  114      0.00  2019 02 20 01 18   48.88560  236.66600    45
  115      0.00  2019 02 20 01 18   48.43210  236.59801     5
  117      0.00  2019 02 20 01 18   48.85550  236.49699    40
  121      0.00  2019 02 20 01 18   48.85540  236.49300    40
  123      0.00  2019 02 20 01 18   49.15670  236.03101    23
  125      0.00  2019 02 20 01 18   48.43350  236.67599     5
  126      0.00  2019 02 20 01 18   48.78590  236.30499    10
  131      0.00  2019 02 20 01 18   48.42890  236.69299     5
  132      0.00  2019 02 20 01 18   48.61540  236.36900    14
  136      0.00  2019 02 20 01 18   49.22670  235.95399    20
  137      0.00  2019 02 20 01 18   49.24090  235.96700    20
  138      0.00  2019 02 20 01 18   49.15220  236.06200    20
  139      0.00  2019 02 20 01 18   49.23280  236.03200    20
  143      0.00  2019 02 20 01 18   48.46230  236.69099     5
  144      0.00  2019 02 20 01 18   48.43940  236.64999     5
  162      0.00  2019 02 20 01 18   48.45240  236.67101     5
  163      0.00  2019 02 20 01 18   48.46480  236.68600     5
  166      0.00  2019 02 20 01 18   49.22710  235.20799    60
  167      0.00  2019 02 20 01 18   49.15040  234.09500    60
  168      0.00  2019 02 20 01 18   48.93980  234.45500    60
  169      0.00  2019 02 20 01 18   48.43780  236.46700     5
  174      0.00  2019 02 20 01 18   48.62580  236.57700     4
  176      0.00  2019 02 20 01 18   48.41800  236.68201     5
  178      0.00  2019 02 20 01 18   64.06090  225.57001    81
  180      0.00  2019 02 20 01 18   49.92680  233.34801    70
  181      0.00  2019 02 20 01 18   48.38970  236.47800     5
  182      0.00  2019 02 20 01 18   49.20990  236.04500    23
  188      0.00  2019 02 20 01 18   48.66570  236.58200     4
  189      0.00  2019 02 20 01 18   49.70950  235.08600    30
  190      0.00  2019 02 20 01 18   49.68220  235.00101    30
  191      0.00  2019 02 20 01 18   49.62120  234.96700    30
  192      0.00  2019 02 20 01 18   49.53550  235.18401    30
  194      0.00  2019 02 20 01 18   49.85610  234.88100    30
  195      0.00  2019 02 20 01 18   49.76670  234.97301    30
  199      0.00  2019 02 20 01 18   48.39510  236.69501     5
  200      0.00  2019 02 20 01 18   48.48800  236.67300     5
  204      0.00  2019 02 20 01 18   49.94130  234.80499    35
  206      0.00  2019 02 20 01 18   49.97270  234.76100    35
  207      0.00  2019 02 20 01 18   49.98010  234.75500    35
  208      0.00  2019 02 20 01 18   50.02360  234.72600    35
  210      0.00  2019 02 20 01 18   50.02080  234.75400    35
  211      0.00  2019 02 20 01 18   50.05990  235.01700    35
  212      0.00  2019 02 20 01 18   50.37740  234.04201    35
  217      0.00  2019 02 20 01 18   48.45190  236.70399     5
  218      0.00  2019 02 20 01 18   49.32200  235.65700    21
  226      0.00  2019 02 20 01 18   48.80798  235.32809    65
  227      0.00  2019 02 20 01 18   48.52524  236.61111     5
  228      0.00  2019 02 20 01 18   48.43951  236.62003     5
  234      0.00  2019 02 20 01 18   48.88760  236.62149    45
  235      0.00  2019 02 20 01 18   48.92833  236.53203    45
  236      0.00  2019 02 20 01 18   48.90087  236.65764    45
uv
    3      0.00  2019 02 20 01 18   48.47760  236.58299     1
    4      0.00  2019 02 20 01 18   48.44080  236.66100     1
    5      0.00  2019 02 20 01 18   48.46600  236.66299     1
    6      0.00  2019 02 20 01 18   48.46160  236.59200     1
    7      0.00  2019 02 20 01 18   48.46550  236.67900     1
    9      0.00  2019 02 20 01 18   48.46510  236.70000     1
   10      0.00  2019 02 20 01 18   48.42530  236.59500     1
   11      0.00  2019 02 20 01 18   48.41690  236.62000     1
   12      0.00  2019 02 20 01 18   48.43460  236.61200     1
   14      0.00  2019 02 20 01 18   48.43590  236.68900     1
   15      0.00  2019 02 20 01 18   48.41530  236.65199     1
   17      0.00  2019 02 20 01 18   48.46630  236.55800     1
   18      0.00  2019 02 20 01 18   48.48650  236.67599     1
   19      0.00  2019 02 20 01 18   48.41820  236.68600     1
   20      0.00  2019 02 20 01 18   48.47880  236.63499     1
   21      0.00  2019 02 20 01 18   48.47440  236.61900     1
   22      0.00  2019 02 20 01 18   48.45340  236.64101     1
   24      0.00  2019 02 20 01 18   48.48490  236.68600     1
   25      0.00  2019 02 20 01 18   48.44510  236.67200     1
   27      0.00  2019 02 20 01 18   48.47690  236.60899     1
   29      0.00  2019 02 20 01 18   48.43290  236.64900     1
   30      0.00  2019 02 20 01 18   48.48060  236.60001     1
   31      0.00  2019 02 20 01 18   48.42050  236.51401     3
   32      0.00  2019 02 20 01 18   48.43560  236.51401     3
   33      0.00  2019 02 20 01 18   48.46830  236.64101     1
   34      0.00  2019 02 20 01 18   48.45290  236.52299     3
   36      0.00  2019 02 20 01 18   48.36400  236.44600     3
   39      0.00  2019 02 20 01 18   48.46550  236.49400     3
   40      0.00  2019 02 20 01 18   48.45150  236.49500     3
   55      0.00  2019 02 20 01 18   48.44880  236.51401     3
   56      0.00  2019 02 20 01 18   48.45720  236.45100     3
   59      0.00  2019 02 20 01 18   48.38740  236.28300     3
   60      0.00  2019 02 20 01 18   48.43820  236.60400     1
   61      0.00  2019 02 20 01 18   48.52730  236.63000     4
   62      0.00  2019 02 20 01 18   48.68040  236.54300     4
   66      0.00  2019 02 20 01 18   48.52340  236.56700     4
   68      0.00  2019 02 20 01 18   48.56970  236.54700     4
   70      0.00  2019 02 20 01 18   48.67010  236.57899     4
   71      0.00  2019 02 20 01 18   48.53760  236.49899    11
   72      0.00  2019 02 20 01 18   48.29838  236.46838     5
   73      0.00  2019 02 20 01 18   48.45370  236.57899     1
   74      0.00  2019 02 20 01 18   48.44560  236.63901     1
   75      0.00  2019 02 20 01 18   48.42350  236.65300     1
   76      0.00  2019 02 20 01 18   48.47920  236.66901     1
   77      0.00  2019 02 20 01 18   48.46690  236.60800     1
   79      0.00  2019 02 20 01 18   48.47130  236.69299     1
   80      0.00  2019 02 20 01 18   48.48210  236.67000     1
   81      0.00  2019 02 20 01 18   48.46970  236.65500     1
   85      0.00  2019 02 20 01 18   48.82900  235.94800    10
   86      0.00  2019 02 20 01 18   49.22620  235.97301    20
   90      0.00  2019 02 20 01 18   48.45710  236.56300     1
   93      0.00  2019 02 20 01 18   48.65380  236.37601    14
   95      0.00  2019 02 20 01 18   49.34850  235.59900    21
   96      0.00  2019 02 20 01 18   49.44590  235.30099    21
   98      0.00  2019 02 20 01 18   48.41610  236.67000     1
   99      0.00  2019 02 20 01 18   48.51100  236.53600    11
  101      0.00  2019 02 20 01 18   48.51010  236.47600    11
  104      0.00  2019 02 20 01 18   48.42810  236.47099     3
  105      0.00  2019 02 20 01 18   48.55650  235.60100     3
  106      0.00  2019 02 20 01 18   48.38910  236.30400     3
  108      0.00  2019 02 20 01 18   49.24600  235.19600    23
  110      0.00  2019 02 20 01 18   49.27380  235.80901    21
  111      0.00  2019 02 20 01 18   49.31490  235.68800    21
  112      0.00  2019 02 20 01 18   48.79430  236.82700    40
  114      0.00  2019 02 20 01 18   48.88560  236.66600    45
  114      0.00  2019 02 20 01 18   48.88560  236.66600    40
  115      0.00  2019 02 20 01 18   48.43210  236.59801     5
  121      0.00  2019 02 20 01 18   48.85540  236.49300    40
  123      0.00  2019 02 20 01 18   49.15670  236.03101    23
  125      0.00  2019 02 20 01 18   48.43350  236.67599     5
  126      0.00  2019 02 20 01 18   48.78590  236.30499    10
  132      0.00  2019 02 20 01 18   48.61540  236.36900    14
  136      0.00  2019 02 20 01 18   49.22670  235.95399    20
  137      0.00  2019 02 20 01 18   49.24090  235.96700    20
  138      0.00  2019 02 20 01 18   49.15220  236.06200    20
  139      0.00  2019 02 20 01 18   49.23280  236.03200    20
  143      0.00  2019 02 20 01 18   48.46230  236.69099     5
  144      0.00  2019 02 20 01 18   48.43940  236.64999     5
  162      0.00  2019 02 20 01 18   48.45240  236.67101     5
  163      0.00  2019 02 20 01 18   48.46480  236.68600     5
  166      0.00  2019 02 20 01 18   49.22710  235.20799    60
  167      0.00  2019 02 20 01 18   49.15040  234.09500    60
  168      0.00  2019 02 20 01 18   48.93980  234.45500    60
  169      0.00  2019 02 20 01 18   48.43780  236.46700     5
  174      0.00  2019 02 20 01 18   48.62580  236.57700     4
  176      0.00  2019 02 20 01 18   48.41800  236.68201     5
  180      0.00  2019 02 20 01 18   49.92680  233.34801    70
  181      0.00  2019 02 20 01 18   48.38970  236.47800     5
  182      0.00  2019 02 20 01 18   49.20990  236.04500    23
  188      0.00  2019 02 20 01 18   48.66570  236.58200     4
  189      0.00  2019 02 20 01 18   49.70950  235.08600    30
  190      0.00  2019 02 20 01 18   49.68220  235.00101    30
  191      0.00  2019 02 20 01 18   49.62120  234.96700    30
  192      0.00  2019 02 20 01 18   49.53550  235.18401    30
  194      0.00  2019 02 20 01 18   49.85610  234.88100    30
  195      0.00  2019 02 20 01 18   49.76670  234.97301    30
  199      0.00  2019 02 20 01 18   48.39510  236.69501     5
  200      0.00  2019 02 20 01 18   48.48800  236.67300     5
  204      0.00  2019 02 20 01 18   49.94130  234.80499    35
  206      0.00  2019 02 20 01 18   49.97270  234.76100    35
  207      0.00  2019 02 20 01 18   49.98010  234.75500    35
  208      0.00  2019 02 20 01 18   50.02360  234.72600    35
  210      0.00  2019 02 20 01 18   50.02080  234.75400    35
  211      0.00  2019 02 20 01 18   50.05990  235.01700    35
  212      0.00  2019 02 20 01 18   50.37740  234.04201    35
  217      0.00  2019 02 20 01 18   48.45190  236.70399     5
  218      0.00  2019 02 20 01 18   49.32200  235.65700    21
  226      0.00  2019 02 20 01 18   48.80798  235.32809    65
  227      0.00  2019 02 20 01 18   48.52524  236.61111     5
  228      0.00  2019 02 20 01 18   48.43951  236.62003     5
  234      0.00  2019 02 20 01 18   48.88760  236.62149    45
  235      0.00  2019 02 20 01 18   48.92833  236.53203    45
  236      0.00  2019 02 20 01 18   48.90087  236.65764    45
raintotal
    1      0.00  2019 02 20 01 18   48.46990  236.68100     5
    3      0.00  2019 02 20 01 18   48.47760  236.58299     1
    4      0.00  2019 02 20 01 18   48.44080  236.66100     1
    5      0.00  2019 02 20 01 18   48.46600  236.66299     1
    6      0.00  2019 02 20 01 18   48.46160  236.59200     1
    7      0.00  2019 02 20 01 18   48.46550  236.67900     1
    9      0.00  2019 02 20 01 18   48.46510  236.70000     1
   10      0.00  2019 02 20 01 18   48.42530  236.59500     1
   11      0.00  2019 02 20 01 18   48.41690  236.62000     1
   12      0.00  2019 02 20 01 18   48.43460  236.61200     1
   13      0.00  2019 02 20 01 18   48.45330  236.57401     1
   14      0.00  2019 02 20 01 18   48.43590  236.68900     1
   15      0.00  2019 02 20 01 18   48.41530  236.65199     1
   16      0.00  2019 02 20 01 18   48.45190  236.60699     1
   17      0.00  2019 02 20 01 18   48.46630  236.55800     1
   18      0.00  2019 02 20 01 18   48.48650  236.67599     1
   19      0.00  2019 02 20 01 18   48.41820  236.68600     1
   20      0.00  2019 02 20 01 18   48.47880  236.63499     1
   21      0.00  2019 02 20 01 18   48.47440  236.61900     1
   22      0.00  2019 02 20 01 18   48.45340  236.64101     1
   24      0.00  2019 02 20 01 18   48.48490  236.68600     1
   25      0.00  2019 02 20 01 18   48.44510  236.67200     1
   27      0.00  2019 02 20 01 18   48.47690  236.60899     1
   29      0.00  2019 02 20 01 18   48.43290  236.64900     1
   30      0.00  2019 02 20 01 18   48.48060  236.60001     1
   31      0.00  2019 02 20 01 18   48.42050  236.51401     3
   32      0.00  2019 02 20 01 18   48.43560  236.51401     3
   33      0.00  2019 02 20 01 18   48.46830  236.64101     1
   34      0.00  2019 02 20 01 18   48.45290  236.52299     3
   35      0.00  2019 02 20 01 18   48.44280  236.50400     3
   36      0.20  2019 02 20 01 18   48.36400  236.44600     3
   39      0.00  2019 02 20 01 18   48.46550  236.49400     3
   40      0.00  2019 02 20 01 18   48.45150  236.49500     3
   42      0.00  2019 02 20 01 18   48.56210  236.53400     2
   43      0.00  2019 02 20 01 18   48.45220  236.73300     5
   55      0.00  2019 02 20 01 18   48.44880  236.51401     3
   56      0.00  2019 02 20 01 18   48.45720  236.45100     3
   57      0.00  2019 02 20 01 18   48.42180  236.50500     3
   58      0.00  2019 02 20 01 18   48.41910  236.51199     3
   59      0.00  2019 02 20 01 18   48.38740  236.28300     3
   60      0.00  2019 02 20 01 18   48.43820  236.60400     1
   61      0.00  2019 02 20 01 18   48.52730  236.63000     4
   62      0.00  2019 02 20 01 18   48.68040  236.54300     4
   66      0.00  2019 02 20 01 18   48.52340  236.56700     4
   68      0.00  2019 02 20 01 18   48.56970  236.54700     4
   70      0.00  2019 02 20 01 18   48.67010  236.57899     4
   71      0.00  2019 02 20 01 18   48.53760  236.49899    11
   72      0.00  2019 02 20 01 18   48.29838  236.46838     5
   73      0.00  2019 02 20 01 18   48.45370  236.57899     1
   74      0.00  2019 02 20 01 18   48.44560  236.63901     1
   75      0.00  2019 02 20 01 18   48.42350  236.65300     1
   76      0.00  2019 02 20 01 18   48.47920  236.66901     1
   77      0.00  2019 02 20 01 18   48.46690  236.60800     1
   79      0.00  2019 02 20 01 18   48.47130  236.69299     1
   80      0.00  2019 02 20 01 18   48.48210  236.67000     1
   81      0.00  2019 02 20 01 18   48.46970  236.65500     1
   85      0.00  2019 02 20 01 18   48.82900  235.94800    10
   86      0.00  2019 02 20 01 18   49.22620  235.97301    20
   89      0.00  2019 02 20 01 18   49.31120  235.67300    21
   90      0.00  2019 02 20 01 18   48.45710  236.56300     1
   93      0.00  2019 02 20 01 18   48.65380  236.37601    14
   94      0.00  2019 02 20 01 18   48.76600  236.73199    40
   95      0.00  2019 02 20 01 18   49.34850  235.59900    21
   96      0.20  2019 02 20 01 18   49.44590  235.30099    21
   98      0.00  2019 02 20 01 18   48.41610  236.67000     1
   99      0.00  2019 02 20 01 18   48.51100  236.53600    11
  101      0.00  2019 02 20 01 18   48.51010  236.47600    11
  103      0.00  2019 02 20 01 18   48.66000  236.42999    10
  104      0.00  2019 02 20 01 18   48.42810  236.47099     3
  105      0.00  2019 02 20 01 18   48.55650  235.60100     3
  106      0.00  2019 02 20 01 18   48.38910  236.30400     3
  107      0.00  2019 02 20 01 18   48.46610  236.50400     3
  110      0.00  2019 02 20 01 18   49.27380  235.80901    21
  111      0.00  2019 02 20 01 18   49.31490  235.68800    21
  112      0.00  2019 02 20 01 18   48.79430  236.82700    40
  114      0.00  2019 02 20 01 18   48.88560  236.66600    40
  114      0.00  2019 02 20 01 18   48.88560  236.66600    45
  115      0.00  2019 02 20 01 18   48.43210  236.59801     5
  117      0.00  2019 02 20 01 18   48.85550  236.49699    40
  119      0.00  2019 02 20 01 18   48.90720  236.46100    40
  120      0.00  2019 02 20 01 18   48.77670  236.55299    40
  121      0.00  2019 02 20 01 18   48.85540  236.49300    40
  123      0.00  2019 02 20 01 18   49.15670  236.03101    23
  125      0.00  2019 02 20 01 18   48.43350  236.67599     5
  126      0.00  2019 02 20 01 18   48.78590  236.30499    10
  131      0.00  2019 02 20 01 18   48.42890  236.69299     5
  132      0.00  2019 02 20 01 18   48.61540  236.36900    14
  133      0.00  2019 02 20 01 18   48.65230  236.34900    10
  136      0.00  2019 02 20 01 18   49.22670  235.95399    20
  137      0.00  2019 02 20 01 18   49.24090  235.96700    20
  138      0.00  2019 02 20 01 18   49.15220  236.06200    20
  139      0.00  2019 02 20 01 18   49.23280  236.03200    20
  143      0.00  2019 02 20 01 18   48.46230  236.69099     5
  144      0.00  2019 02 20 01 18   48.43940  236.64999     5
  160      0.00  2019 02 20 01 18   48.65680  236.35699    14
  161      0.00  2019 02 20 01 18   48.83490  234.86400    65
  162      0.00  2019 02 20 01 18   48.45240  236.67101     5
  163      0.00  2019 02 20 01 18   48.46480  236.68600     5
  166      0.00  2019 02 20 01 18   49.22710  235.20799    60
  167      0.20  2019 02 20 01 18   49.15040  234.09500    60
  168      0.00  2019 02 20 01 18   48.93980  234.45500    60
  169      0.00  2019 02 20 01 18   48.43780  236.46700     5
  174      0.00  2019 02 20 01 18   48.62580  236.57700     4
  176      0.20  2019 02 20 01 18   48.41800  236.68201     5
  178      0.00  2019 02 20 01 18   64.06090  225.57001    81
  180      0.00  2019 02 20 01 18   49.92680  233.34801    70
  181      0.00  2019 02 20 01 18   48.38970  236.47800     5
  182      0.00  2019 02 20 01 18   49.20990  236.04500    23
  188      0.00  2019 02 20 01 18   48.66570  236.58200     4
  189      0.00  2019 02 20 01 18   49.70950  235.08600    30
  190      0.00  2019 02 20 01 18   49.68220  235.00101    30
  191      0.00  2019 02 20 01 18   49.62120  234.96700    30
  192      0.00  2019 02 20 01 18   49.53550  235.18401    30
  194      0.00  2019 02 20 01 18   49.85610  234.88100    30
  195      0.00  2019 02 20 01 18   49.76670  234.97301    30
  199      0.00  2019 02 20 01 18   48.39510  236.69501     5
  200      0.00  2019 02 20 01 18   48.48800  236.67300     5
  204      0.00  2019 02 20 01 18   49.94130  234.80499    35
  206      0.00  2019 02 20 01 18   49.97270  234.76100    35
  207      0.00  2019 02 20 01 18   49.98010  234.75500    35
  208      0.00  2019 02 20 01 18   50.02360  234.72600    35
  210      0.00  2019 02 20 01 18   50.02080  234.75400    35
  211      0.00  2019 02 20 01 18   50.05990  235.01700    35
  212      0.00  2019 02 20 01 18   50.37740  234.04201    35
  213      0.00  2019 02 20 01 18   50.01380  234.75000    35
  217      0.00  2019 02 20 01 18   48.45190  236.70399     5
  218      0.00  2019 02 20 01 18   49.32200  235.65700    21
  226      0.00  2019 02 20 01 18   48.80798  235.32809    65
  227      0.00  2019 02 20 01 18   48.52524  236.61111     5
  228      0.00  2019 02 20 01 18   48.43951  236.62003     5
  234      0.00  2019 02 20 01 18   48.88760  236.62149    45
  235      0.00  2019 02 20 01 18   48.92833  236.53203    45
  236      0.00  2019 02 20 01 18   48.90087  236.65764    45
  237      0.00  2019 02 20 01 18   48.96380  236.44890    45
  238      0.00  2019 02 20 01 18   48.88512  236.64799    45
NumberStation Name
1 U Ian Stewart Complex/Mt. Douglas High School
3 U Strawberry Vale Elementary School
4 U Oaklands Elementary School
5 U Cedar Hill Middle School
6 U Marigold Elementary School/Spectrum High School
7 U Campus View Elementary
8 D Victoria High School
9 U Frank Hobbs Elementary School
10 D Macaulay Elementary School
11 U James Bay Elementary School
12 U Victoria West Elementary School
13 U Shoreline Middle School
14 U Willows Elementary School
15 U Sir James Douglas Elementary School
16 U Tillicum Elementary School
17 U Eagle View Elementary School
18 U Torquay Elementary School
19 U Monterey Middle School
20 U Lake Hill Elementary School
21 U Rogers Elementary School
22 U Cloverdale Elementary School
24 U Hillcrest Elementary School
25 U Lansdowne Middle School
26 D Doncaster Elementary School
27 U Glanford Middle School
29 U George Jay Elementary School
30 U Northridge Elementary School
31 U Sangster Elementary School
32 U Colwood Elementary School
33 U Reynolds High School
34 U Crystal View Elementary School
35 U David Cameron Elementary School
36 U Hans Helgesen Elementary School
37 D John Muir Elementary School
39 U Lakewood Elementary School
40 U Ruth King Elementary School
41 U CTV Victoria
42 U Butchart Gardens
43 U Ten Mile Point
50 D Ocean Trails Resort
55 U Savory Elementary School
56 U Willway Elementary School
57 U Wishart Elementary School
58 U Dunsmuir Middle School
59 U Journey Middle School/Poirier Elementary School
60 U Esquimalt High School
61 U Cordova Bay Elementary School
62 U Deep Cove Elementary School
63 D Keating Elementary School
64 D Lochside Elementary School
66 U Prospect Lake Elementary School
67 D Sidney Elementary School
68 U Bayside Middle School
70 U Parkland Secondary School
71 U Cal Revelle Nature Sanctuary
72 U Race Rocks Ecological Reserve
73 U Craigflower Elementary School
74 U Quadra Elementary School
75 U Central Middle School
76 U Lambrick Park High School
77 U McKenzie Elementary School
79 U Arbutus Middle School
80 U Gordon Head Middle School
81 U Braefoot Elementary School
82 D Colquitz Middle School
84 D Qualicum Beach Elementary School
85 U Palsson Elementary School
86 U Randerson Ridge Elementary School
89 U Springwood Elementary School
90 U View Royal Elementary School
92 D False Bay School
93 U Shawnigan Lake Museum
94 U Pender Islands Elementary and Secondary School
95 U Arrowview Elementary School
96 U Bowser Elementary School
98 U Margaret Jenkins Elementary School
99 U East Highlands District Firehall
100 D District of Highlands Office
101 U West Highlands District Firehall
103 U Frances Kelsey Secondary School
104 U Happy Valley Elementary School
105 U Port Renfrew Elementary School
106 U Edward Milne Community School
107 U Millstream Elementary School
108 U Alberni Weather
109 D Brentwood Elementary School
110 U Nanoose Bay Elementary School
111 U Parksville Elementary School
112 U Saturna Elementary School
113 D Mayne Island School
114 U Galiano Community School
114 U Galiano Community School
115 U L'Ecole Victor Brodeur
117 U Saltspring Elementary and Middle Schools
119 U Fernwood Elementary School
120 U Fulford Elementary School
121 U Gulf Islands Secondary School
122 D Phoenix Elementary School
123 U Vancouver Island University
124 D Seaview Elementary School
125 U St. Patrick's Elementary School
126 U Quamichan Middle School
128 D John Stubbs Memorial School
129 D G.R. Paine Horticultural Training Centre
131 U Glenlyon Norfolk Junior School
132 U Shawnigan Lake
133 U Discovery Elementary School
134 D Swan Lake Nature House
136 U Pleasant Valley Elementary School
137 U McGirr Elementary School
138 U Bayview Elementary School
139 U L'Ecole Hammond Bay Elementary
140 D Uplands Park Elementary
141 D Mountain View Elementary
143 U UVic Science Building
144 U Arc School of Inquiry - Cridge Centre
159 D Camosun College Lansdowne
160 U Shawnigan Lake School
161 U Bamfield Marine Sciences Centre
162 U St. Michaels University School Senior Campus
163 U UVic David Turpin Building
165 D Alberni Elementary School
166 U Maquinna Elementary School
167 U Wickaninnish Community School
168 U Ucluelet High School
169 U Lighthouse Christian Academy
174 U Kelset Elementary School
176 U St. Michaels University School Junior Campus
177 D Ladysmith Secondary School
178 U Robert Service School, Dawson City, YT
179 D Ray Watkins Elementary
180 U Captain Meares Elementary Secondary School
181 U West-Mont Montessori School
182 U Pacific Biological Station, DFO-MPO
188 U North Saanich Middle School
189 U Airport Elementary School
190 U Courtenay Elementary School
191 U Cumberland Community School
192 U Denman Island Community School
193 D Hornby Island Community School
194 U Miracle Beach Elementary
195 U North Island Distance Education School
196 D Valley View Elementary School
197 D RASC Victoria Centre
199 U Trial Island Lightstation
200 U Longacre
204 U Ocean Grove Elementary
205 D Willow Point Elementary
206 U Penfield Elementary
207 U Timberline Secondary
208 U Ripple Rock Elementary School
209 D Ecole des Deux Mondes
210 U Phoenix Middle School
211 U Cortes Island School
212 U Sayward Elementary School
213 U Carihi Secondary
215 D St Joseph's Elementary School
216 D Queen Elizabeth Secondary School
217 U Royal Victoria Yacht Club
218 U PASS-Woodwinds Alternate School
226 U Ditidaht Community School
227 D Elk Lake Rowing Club
228 U S.M.U.S Community Rowing Centre
230 D Gorge Waterways Nature House
231 U Banfield Park
232 D Highlands Community Hall
234 U Galiano Montague Road
235 U Millard Learning Centre
236 U Galiano Ellis Road
237 U Galiano Island North West
238 U Galiano Georgeson Bay Road
243 D Galiano Catkin Farm
244 D Galiano Marben Farm
245 D Mount Galiano
246 D Galiano Mt Sutil
247 D Galiano Shaws Bog
248 D Galiano Sticks West
249 D Galiano Cable Bay
250 D Galiano Silveys Camp
251 D Galiano Stockade Hill
253 D Galiano Bluffs Park
254 D Galiano Tapovan
U = Up, D = Down
This page took 199.7 ms to generate.

Disclaimer:

The Vancouver Island School-Based Weather Station Network is an education first project. Data from the network are made freely available as is to the public with no guarantee of accuracy or availability. Commercial use requires a license. Please contact weather at uvic.ca for more information. This work (this site and all contents not otherwise attributed) by School-Based Weather Station Network is licensed under a Creative Commons Attribution-NonCommercial-ShareAlike 4.0 International License.
Creative Commons License

Valid HTML 5
Powered By UVic EOSC
Last Modified: February 13 2012 15:41:45.